createdAt,value
2023-01-05T00:00:38.241Z,99.71
2023-01-05T00:01:38.107Z,99.82
2023-01-05T00:02:38.232Z,99.91
2023-01-05T00:03:38.069Z,99.99
2023-01-05T00:04:38.207Z,99.99
2023-01-05T00:05:38.049Z,99.99
2023-01-05T00:06:38.071Z,99.99
2023-01-05T00:07:38.053Z,99.99
2023-01-05T00:08:38.163Z,99.99
2023-01-05T00:09:37.977Z,99.99
2023-01-05T00:10:38.005Z,99.99
2023-01-05T00:11:37.973Z,99.99
2023-01-05T00:12:37.976Z,99.99
2023-01-05T00:13:37.941Z,99.99
2023-01-05T00:14:37.948Z,99.99
2023-01-05T00:15:37.912Z,99.99
2023-01-05T00:16:37.989Z,99.99
2023-01-05T00:17:37.902Z,99.99
2023-01-05T00:18:37.959Z,99.99
2023-01-05T00:19:37.860Z,99.99
2023-01-05T00:20:37.865Z,99.99
2023-01-05T00:21:37.836Z,99.99
2023-01-05T00:22:37.873Z,99.99
2023-01-05T00:23:37.801Z,99.99
2023-01-05T00:24:37.826Z,99.99
2023-01-05T00:25:37.788Z,99.99
2023-01-05T00:26:37.771Z,99.99
2023-01-05T00:27:37.781Z,99.99
2023-01-05T00:28:37.773Z,99.99
2023-01-05T00:29:37.724Z,99.99
2023-01-05T00:30:37.755Z,99.99
2023-01-05T00:31:37.724Z,99.99
2023-01-05T00:32:37.736Z,99.99
2023-01-05T00:33:37.678Z,99.99
2023-01-05T00:34:37.703Z,99.99
2023-01-05T00:35:37.666Z,99.99
2023-01-05T00:36:37.655Z,99.99
2023-01-05T00:37:37.618Z,99.99
2023-01-05T00:38:37.656Z,99.99
2023-01-05T00:39:37.610Z,99.99
2023-01-05T00:40:37.637Z,99.99
2023-01-05T00:41:37.569Z,99.99
2023-01-05T00:42:37.585Z,99.99
2023-01-05T00:43:37.582Z,99.99
2023-01-05T00:44:37.555Z,99.99
2023-01-05T00:45:37.618Z,99.99
2023-01-05T00:46:37.523Z,99.99
2023-01-05T00:47:37.492Z,99.99
2023-01-05T00:48:37.498Z,99.99
2023-01-05T00:49:37.457Z,99.99
2023-01-05T00:50:37.498Z,99.99
2023-01-05T00:51:37.453Z,99.99
2023-01-05T00:52:37.441Z,99.99
2023-01-05T00:53:37.460Z,99.99
2023-01-05T00:54:37.426Z,99.99
2023-01-05T00:55:37.391Z,99.99
2023-01-05T00:56:37.425Z,99.99
2023-01-05T00:57:37.360Z,99.99
2023-01-05T00:58:37.362Z,99.99
2023-01-05T00:59:37.343Z,99.99
2023-01-05T01:00:42.316Z,99.99
2023-01-05T01:01:37.402Z,99.99
2023-01-05T01:02:37.315Z,99.99
2023-01-05T01:03:37.315Z,99.99
2023-01-05T01:04:37.284Z,99.99
2023-01-05T01:05:37.276Z,99.99
2023-01-05T01:06:37.276Z,99.99
2023-01-05T01:07:37.225Z,99.99
2023-01-05T01:08:37.265Z,99.99
2023-01-05T01:09:37.210Z,99.99
2023-01-05T01:10:37.217Z,99.99
2023-01-05T01:11:37.198Z,99.99
2023-01-05T01:12:37.183Z,99.99
2023-01-05T01:13:37.164Z,99.99
2023-01-05T01:14:37.161Z,99.99
2023-01-05T01:15:37.120Z,99.99
2023-01-05T01:16:37.192Z,99.99
2023-01-05T01:17:37.093Z,99.99
2023-01-05T01:18:37.128Z,99.99
2023-01-05T01:19:37.071Z,99.99
2023-01-05T01:20:37.117Z,99.99
2023-01-05T01:21:37.043Z,99.99
2023-01-05T01:22:37.078Z,99.99
2023-01-05T01:23:37.063Z,99.99
2023-01-05T01:24:37.030Z,99.99
2023-01-05T01:25:36.985Z,99.99
2023-01-05T01:26:37.013Z,99.99
2023-01-05T01:27:36.996Z,99.99
2023-01-05T01:28:36.988Z,99.99
2023-01-05T01:29:36.935Z,99.99
2023-01-05T01:30:36.967Z,99.99
2023-01-05T01:31:36.933Z,99.99
2023-01-05T01:32:36.920Z,99.99
2023-01-05T01:33:36.871Z,99.99
2023-01-05T01:34:36.922Z,99.99
2023-01-05T01:35:36.848Z,99.99
2023-01-05T01:36:36.868Z,99.99
2023-01-05T01:37:36.835Z,99.99
2023-01-05T01:38:36.855Z,99.99
2023-01-05T01:39:36.820Z,99.99
2023-01-05T01:40:36.807Z,99.99
2023-01-05T01:41:36.784Z,99.99
2023-01-05T01:42:36.812Z,99.99
2023-01-05T01:43:36.775Z,99.99
2023-01-05T01:44:36.780Z,99.99
2023-01-05T01:45:36.800Z,99.99
2023-01-05T01:46:36.748Z,99.99
2023-01-05T01:47:36.698Z,99.99
2023-01-05T01:48:36.714Z,99.98
2023-01-05T01:49:36.723Z,99.87
2023-01-05T01:50:36.706Z,99.66
2023-01-05T01:51:36.647Z,99.56
2023-01-05T01:52:36.687Z,99.56
2023-01-05T01:53:36.623Z,99.56
2023-01-05T01:54:36.635Z,99.46
2023-01-05T01:55:36.612Z,99.46
2023-01-05T01:56:36.588Z,99.36
2023-01-05T01:57:36.589Z,99.46
2023-01-05T01:58:36.573Z,99.46
2023-01-05T01:59:36.561Z,99.56
2023-01-05T02:00:36.567Z,99.66
2023-01-05T02:01:36.748Z,99.77
2023-01-05T02:02:36.628Z,99.87
2023-01-05T02:03:36.521Z,99.98
2023-01-05T02:04:36.591Z,99.99
2023-01-05T02:05:36.504Z,99.99
2023-01-05T02:06:36.453Z,99.99
2023-01-05T02:07:36.452Z,99.99
2023-01-05T02:08:36.424Z,99.99
2023-01-05T02:09:36.445Z,99.99
2023-01-05T02:10:36.400Z,99.99
2023-01-05T02:11:36.402Z,99.99
2023-01-05T02:12:36.383Z,99.99
2023-01-05T02:13:36.383Z,99.99
2023-01-05T02:14:36.364Z,99.99
2023-01-05T02:15:36.359Z,99.99
2023-01-05T02:16:36.355Z,99.99
2023-01-05T02:17:36.316Z,99.99
2023-01-05T02:18:36.315Z,99.99
2023-01-05T02:19:36.302Z,99.99
2023-01-05T02:20:36.284Z,99.99
2023-01-05T02:21:36.294Z,99.99
2023-01-05T02:22:36.237Z,99.99
2023-01-05T02:23:36.261Z,99.99
2023-01-05T02:24:36.212Z,99.99
2023-01-05T02:25:36.220Z,99.99
2023-01-05T02:26:36.180Z,99.99
2023-01-05T02:27:36.201Z,99.99
2023-01-05T02:28:36.168Z,99.99
2023-01-05T02:29:36.159Z,99.99
2023-01-05T02:30:36.193Z,99.99
2023-01-05T02:31:36.160Z,99.99
2023-01-05T02:32:36.129Z,99.99
2023-01-05T02:33:36.125Z,99.99
2023-01-05T02:34:36.089Z,99.99
2023-01-05T02:35:36.113Z,99.99
2023-01-05T02:36:36.103Z,99.99
2023-01-05T02:37:36.068Z,99.99
2023-01-05T02:38:36.054Z,99.99
2023-01-05T02:39:36.046Z,99.99
2023-01-05T02:40:36.004Z,99.99
2023-01-05T02:41:36.014Z,99.99
2023-01-05T02:42:35.990Z,99.99
2023-01-05T02:43:36.009Z,99.99
2023-01-05T02:44:35.957Z,99.99
2023-01-05T02:45:35.961Z,99.99
2023-01-05T02:46:36.039Z,99.99
2023-01-05T02:47:35.935Z,99.99
2023-01-05T02:48:35.928Z,99.99
2023-01-05T02:49:35.909Z,99.99
2023-01-05T02:50:35.870Z,99.99
2023-01-05T02:51:35.907Z,99.99
2023-01-05T02:52:35.877Z,99.99
2023-01-05T02:53:35.856Z,99.99
2023-01-05T02:54:35.808Z,99.99
2023-01-05T02:55:35.830Z,99.99
2023-01-05T02:56:35.804Z,99.99
2023-01-05T02:57:35.812Z,99.99
2023-01-05T02:58:35.779Z,99.99
2023-01-05T02:59:35.808Z,99.99
2023-01-05T03:00:35.730Z,99.99
2023-01-05T03:01:35.928Z,99.99
2023-01-05T03:02:35.996Z,99.99
2023-01-05T03:03:35.768Z,99.99
2023-01-05T03:04:35.698Z,99.99
2023-01-05T03:05:35.697Z,99.99
2023-01-05T03:06:35.651Z,99.99
2023-01-05T03:07:35.690Z,99.99
2023-01-05T03:08:35.627Z,99.99
2023-01-05T03:09:35.642Z,99.99
2023-01-05T03:10:35.625Z,99.99
2023-01-05T03:11:35.644Z,99.99
2023-01-05T03:12:35.589Z,99.99
2023-01-05T03:13:35.593Z,99.99
2023-01-05T03:14:35.565Z,99.99
2023-01-05T03:15:35.690Z,99.99
2023-01-05T03:16:35.599Z,99.99
2023-01-05T03:17:35.574Z,99.99
2023-01-05T03:18:35.546Z,99.99
2023-01-05T03:19:35.506Z,99.99
2023-01-05T03:20:35.483Z,99.99
2023-01-05T03:21:35.488Z,99.99
2023-01-05T03:22:35.472Z,99.99
2023-01-05T03:23:35.467Z,99.99
2023-01-05T03:24:35.430Z,99.99
2023-01-05T03:25:35.454Z,99.99
2023-01-05T03:26:35.400Z,99.99
2023-01-05T03:27:35.394Z,99.99
2023-01-05T03:28:35.367Z,99.99
2023-01-05T03:29:35.382Z,99.99
2023-01-05T03:30:35.405Z,99.99
2023-01-05T03:31:35.386Z,99.99
2023-01-05T03:32:35.364Z,99.99
2023-01-05T03:33:35.357Z,99.99
2023-01-05T03:34:35.290Z,99.99
2023-01-05T03:35:35.320Z,99.99
2023-01-05T03:36:35.297Z,99.99
2023-01-05T03:37:35.294Z,99.99
2023-01-05T03:38:35.253Z,99.99
2023-01-05T03:39:35.251Z,99.99
2023-01-05T03:40:35.242Z,99.99
2023-01-05T03:41:35.221Z,99.99
2023-01-05T03:42:35.182Z,99.99
2023-01-05T03:43:35.197Z,99.99
2023-01-05T03:44:35.172Z,99.99
2023-01-05T03:45:35.161Z,99.99
2023-01-05T03:46:35.184Z,99.99
2023-01-05T03:47:35.166Z,99.99
2023-01-05T03:48:35.100Z,99.99
2023-01-05T03:49:35.100Z,99.99
2023-01-05T03:50:35.095Z,99.99
2023-01-05T03:51:41.474Z,99.99
2023-01-05T03:52:35.056Z,99.99
2023-01-05T03:53:35.078Z,99.99
2023-01-05T03:54:35.031Z,99.99
2023-01-05T03:55:35.033Z,99.99
2023-01-05T03:56:35.005Z,99.99
2023-01-05T03:57:35.017Z,99.99
2023-01-05T03:58:35.020Z,99.99
2023-01-05T03:59:34.982Z,99.99
2023-01-05T04:00:34.948Z,99.99
2023-01-05T04:01:35.039Z,99.99
2023-01-05T04:02:35.092Z,99.99
2023-01-05T04:03:34.956Z,99.99
2023-01-05T04:04:34.904Z,99.99
2023-01-05T04:05:34.898Z,99.99
2023-01-05T04:06:34.931Z,99.99
2023-01-05T04:07:34.874Z,99.99
2023-01-05T04:08:34.851Z,99.99
2023-01-05T04:09:34.874Z,99.99
2023-01-05T04:10:34.812Z,99.99
2023-01-05T04:11:34.859Z,99.99
2023-01-05T04:12:34.800Z,99.99
2023-01-05T04:13:34.799Z,99.99
2023-01-05T04:14:34.751Z,99.99
2023-01-05T04:15:34.777Z,99.99
2023-01-05T04:16:34.855Z,99.99
2023-01-05T04:17:34.779Z,99.99
2023-01-05T04:18:34.716Z,99.99
2023-01-05T04:19:34.738Z,99.99
2023-01-05T04:20:34.689Z,99.99
2023-01-05T04:21:34.700Z,99.99
2023-01-05T04:22:34.681Z,99.99
2023-01-05T04:23:34.673Z,99.99
2023-01-05T04:24:34.649Z,99.99
2023-01-05T04:25:34.645Z,99.99
2023-01-05T04:26:34.599Z,99.99
2023-01-05T04:27:34.635Z,99.99
2023-01-05T04:28:34.582Z,99.99
2023-01-05T04:29:34.600Z,99.99
2023-01-05T04:30:34.539Z,99.99
2023-01-05T04:31:34.597Z,99.99
2023-01-05T04:32:34.543Z,99.99
2023-01-05T04:33:34.557Z,99.99
2023-01-05T04:34:34.555Z,99.99
2023-01-05T04:35:34.529Z,99.99
2023-01-05T04:36:34.463Z,99.99
2023-01-05T04:37:34.490Z,99.99
2023-01-05T04:38:34.441Z,99.99
2023-01-05T04:39:34.479Z,99.99
2023-01-05T04:40:34.447Z,99.99
2023-01-05T04:41:34.439Z,99.99
2023-01-05T04:42:34.418Z,99.99
2023-01-05T04:43:34.414Z,99.99
2023-01-05T04:44:34.378Z,99.99
2023-01-05T04:45:34.397Z,99.99
2023-01-05T04:46:34.381Z,99.99
2023-01-05T04:47:34.357Z,99.99
2023-01-05T04:48:34.311Z,99.99
2023-01-05T04:49:34.326Z,99.99
2023-01-05T04:50:34.333Z,99.99
2023-01-05T04:51:34.292Z,99.99
2023-01-05T04:52:34.264Z,99.99
2023-01-05T04:53:34.268Z,99.99
2023-01-05T04:54:34.257Z,99.99
2023-01-05T04:55:34.268Z,99.99
2023-01-05T04:56:34.220Z,99.99
2023-01-05T04:57:34.224Z,99.99
2023-01-05T04:58:34.198Z,99.99
2023-01-05T04:59:34.200Z,99.99
2023-01-05T05:00:34.196Z,99.99
2023-01-05T05:01:34.289Z,99.99
2023-01-05T05:02:34.187Z,99.99
2023-01-05T05:03:34.218Z,99.99
2023-01-05T05:04:34.131Z,99.99
2023-01-05T05:05:34.109Z,99.99
2023-01-05T05:06:34.075Z,99.99
2023-01-05T05:07:34.090Z,99.99
2023-01-05T05:08:34.074Z,99.99
2023-01-05T05:09:34.102Z,99.99
2023-01-05T05:10:34.025Z,99.99
2023-01-05T05:11:34.061Z,99.99
2023-01-05T05:12:34.009Z,99.99
2023-01-05T05:13:34.033Z,99.99
2023-01-05T05:14:33.983Z,99.99
2023-01-05T05:15:34.000Z,99.99
2023-01-05T05:16:33.957Z,99.99
2023-01-05T05:17:33.958Z,99.99
2023-01-05T05:18:33.941Z,99.99
2023-01-05T05:19:33.938Z,99.99
2023-01-05T05:20:33.892Z,99.99
2023-01-05T05:21:33.891Z,99.99
2023-01-05T05:22:33.865Z,99.99
2023-01-05T05:23:33.893Z,99.99
2023-01-05T05:24:33.852Z,99.99
2023-01-05T05:25:33.858Z,99.99
2023-01-05T05:26:33.811Z,99.99
2023-01-05T05:27:33.885Z,99.99
2023-01-05T05:28:33.782Z,99.99
2023-01-05T05:29:33.800Z,99.99
2023-01-05T05:30:33.763Z,99.99
2023-01-05T05:31:33.933Z,99.99
2023-01-05T05:32:36.102Z,99.99
2023-01-05T05:33:33.742Z,99.99
2023-01-05T05:34:33.717Z,99.99
2023-01-05T05:35:33.754Z,99.99
2023-01-05T05:36:33.691Z,99.99
2023-01-05T05:37:33.711Z,99.99
2023-01-05T05:38:33.660Z,99.99
2023-01-05T05:39:33.690Z,99.99
2023-01-05T05:40:33.627Z,99.99
2023-01-05T05:41:33.665Z,99.99
2023-01-05T05:42:33.631Z,99.99
2023-01-05T05:43:33.613Z,99.99
2023-01-05T05:44:33.577Z,99.99
2023-01-05T05:45:33.588Z,99.99
2023-01-05T05:46:33.658Z,99.99
2023-01-05T05:47:33.571Z,99.99
2023-01-05T05:48:33.540Z,99.99
2023-01-05T05:49:33.546Z,99.99
2023-01-05T05:50:33.526Z,99.99
2023-01-05T05:51:33.543Z,99.99
2023-01-05T05:52:33.503Z,99.99
2023-01-05T05:53:33.499Z,99.99
2023-01-05T05:54:33.441Z,99.99
2023-01-05T05:55:33.477Z,99.99
2023-01-05T05:56:33.421Z,99.99
2023-01-05T05:57:33.457Z,99.99
2023-01-05T05:58:33.410Z,99.99
2023-01-05T05:59:33.401Z,99.99
2023-01-05T06:00:33.401Z,99.99
2023-01-05T06:01:33.580Z,99.99
2023-01-05T06:02:33.502Z,99.99
2023-01-05T06:03:33.394Z,99.99
2023-01-05T06:04:33.320Z,99.99
2023-01-05T06:05:33.333Z,99.99
2023-01-05T06:06:33.304Z,99.99
2023-01-05T06:07:33.288Z,99.99
2023-01-05T06:08:33.268Z,99.99
2023-01-05T06:09:33.277Z,99.99
2023-01-05T06:10:33.231Z,99.99
2023-01-05T06:11:33.243Z,99.99
2023-01-05T06:12:33.243Z,99.99
2023-01-05T06:13:33.207Z,99.99
2023-01-05T06:14:33.226Z,99.99
2023-01-05T06:15:33.169Z,99.99
2023-01-05T06:16:33.212Z,99.99
2023-01-05T06:17:33.128Z,99.99
2023-01-05T06:18:33.170Z,99.99
2023-01-05T06:19:33.148Z,99.99
2023-01-05T06:20:33.139Z,99.99
2023-01-05T06:21:33.097Z,99.99
2023-01-05T06:22:33.132Z,99.99
2023-01-05T06:23:33.070Z,99.99
2023-01-05T06:24:33.071Z,99.99
2023-01-05T06:25:33.071Z,99.99
2023-01-05T06:26:33.073Z,99.99
2023-01-05T06:27:33.033Z,99.99
2023-01-05T06:28:33.032Z,99.99
2023-01-05T06:29:33.009Z,99.99
2023-01-05T06:30:33.026Z,99.99
2023-01-05T06:31:32.963Z,99.99
2023-01-05T06:32:32.963Z,99.99
2023-01-05T06:33:32.940Z,99.99
2023-01-05T06:34:32.936Z,99.99
2023-01-05T06:35:32.957Z,99.99
2023-01-05T06:36:32.918Z,99.99
2023-01-05T06:37:33.018Z,99.99
2023-01-05T06:38:32.897Z,99.99
2023-01-05T06:39:32.876Z,99.99
2023-01-05T06:40:32.852Z,99.99
2023-01-05T06:41:32.887Z,99.99
2023-01-05T06:42:32.850Z,99.99
2023-01-05T06:43:32.809Z,99.99
2023-01-05T06:44:32.800Z,99.99
2023-01-05T06:45:32.817Z,99.99
2023-01-05T06:46:32.807Z,99.99
2023-01-05T06:47:32.786Z,99.99
2023-01-05T06:48:32.755Z,99.99
2023-01-05T06:49:32.728Z,99.99
2023-01-05T06:50:32.731Z,99.99
2023-01-05T06:51:32.713Z,99.99
2023-01-05T06:52:32.729Z,99.99
2023-01-05T06:53:32.691Z,99.99
2023-01-05T06:54:32.675Z,99.99
2023-01-05T06:55:32.810Z,99.99
2023-01-05T06:56:32.640Z,99.99
2023-01-05T06:57:32.613Z,99.99
2023-01-05T06:58:32.682Z,99.99
2023-01-05T06:59:32.605Z,99.99
2023-01-05T07:00:32.767Z,99.99
2023-01-05T07:01:32.735Z,99.99
2023-01-05T07:02:32.577Z,99.99
2023-01-05T07:03:32.579Z,99.99
2023-01-05T07:04:32.589Z,99.99
2023-01-05T07:05:32.513Z,99.99
2023-01-05T07:06:32.520Z,99.99
2023-01-05T07:07:32.481Z,99.99
2023-01-05T07:08:32.502Z,99.99
2023-01-05T07:09:32.481Z,99.99
2023-01-05T07:10:32.466Z,99.99
2023-01-05T07:11:32.427Z,99.99
2023-01-05T07:12:32.474Z,99.99
2023-01-05T07:13:32.417Z,99.99
2023-01-05T07:14:32.422Z,99.99
2023-01-05T07:15:32.423Z,99.99
2023-01-05T07:16:32.459Z,99.99
2023-01-05T07:17:32.410Z,99.99
2023-01-05T07:18:32.378Z,99.99
2023-01-05T07:19:32.321Z,99.99
2023-01-05T07:20:32.376Z,99.99
2023-01-05T07:21:32.301Z,99.99
2023-01-05T07:22:32.326Z,99.99
2023-01-05T07:23:32.262Z,99.99
2023-01-05T07:24:32.292Z,99.99
2023-01-05T07:25:32.266Z,99.99
2023-01-05T07:26:32.304Z,99.99
2023-01-05T07:27:32.220Z,99.99
2023-01-05T07:28:32.240Z,99.99
2023-01-05T07:29:32.199Z,99.99
2023-01-05T07:30:32.223Z,99.99
2023-01-05T07:31:32.206Z,99.99
2023-01-05T07:32:32.211Z,99.99
2023-01-05T07:33:37.568Z,99.99
2023-01-05T07:34:32.175Z,99.99
2023-01-05T07:35:32.110Z,99.99
2023-01-05T07:36:32.136Z,99.99
2023-01-05T07:37:32.114Z,99.99
2023-01-05T07:38:32.084Z,99.99
2023-01-05T07:39:32.050Z,99.99
2023-01-05T07:40:32.085Z,99.99
2023-01-05T07:41:32.070Z,99.99
2023-01-05T07:42:32.076Z,99.99
2023-01-05T07:43:32.023Z,99.99
2023-01-05T07:44:32.018Z,99.99
2023-01-05T07:45:32.078Z,99.99
2023-01-05T07:46:32.007Z,99.99
2023-01-05T07:47:31.974Z,99.99
2023-01-05T07:48:31.972Z,99.99
2023-01-05T07:49:31.924Z,99.99
2023-01-05T07:50:31.947Z,99.99
2023-01-05T07:51:31.910Z,99.99
2023-01-05T07:52:31.915Z,99.99
2023-01-05T07:53:31.888Z,99.99
2023-01-05T07:54:31.904Z,99.99
2023-01-05T07:55:31.913Z,99.99
2023-01-05T07:56:31.883Z,99.99
2023-01-05T07:57:31.849Z,99.99
2023-01-05T07:58:31.851Z,99.99
2023-01-05T07:59:31.808Z,99.99
2023-01-05T08:00:31.820Z,99.99
2023-01-05T08:01:31.841Z,99.99
2023-01-05T08:02:35.880Z,99.99
2023-01-05T08:03:31.760Z,99.99
2023-01-05T08:04:31.796Z,99.99
2023-01-05T08:05:31.701Z,99.99
2023-01-05T08:06:31.756Z,99.99
2023-01-05T08:07:31.686Z,99.99
2023-01-05T08:08:31.703Z,99.99
2023-01-05T08:09:31.667Z,99.99
2023-01-05T08:10:31.679Z,99.99
2023-01-05T08:11:31.667Z,99.99
2023-01-05T08:12:31.673Z,99.99
2023-01-05T08:13:31.632Z,99.99
2023-01-05T08:14:31.608Z,99.99
2023-01-05T08:15:31.588Z,99.99
2023-01-05T08:16:31.806Z,99.82
2023-01-05T08:17:31.568Z,99.52
2023-01-05T08:18:31.578Z,99.11
2023-01-05T08:19:31.541Z,98.80
2023-01-05T08:20:31.561Z,98.49
2023-01-05T08:21:31.526Z,98.39
2023-01-05T08:22:31.536Z,98.19
2023-01-05T08:23:31.483Z,97.98
2023-01-05T08:24:31.482Z,97.78
2023-01-05T08:25:31.454Z,97.57
2023-01-05T08:26:31.528Z,97.27
2023-01-05T08:27:31.421Z,96.96
2023-01-05T08:28:35.547Z,96.75
2023-01-05T08:29:31.441Z,96.66
2023-01-05T08:30:31.435Z,96.34
2023-01-05T08:31:31.427Z,95.94
2023-01-05T08:32:31.414Z,95.84
2023-01-05T08:33:31.387Z,95.94
2023-01-05T08:34:34.718Z,95.79
2023-01-05T08:35:31.345Z,95.73
2023-01-05T08:36:31.357Z,95.69
2023-01-05T08:37:31.331Z,95.28
2023-01-05T08:38:31.329Z,95.28
2023-01-05T08:39:31.287Z,95.18
2023-01-05T08:40:31.909Z,95.18
2023-01-05T08:41:31.241Z,95.07
2023-01-05T08:42:31.256Z,95.07
2023-01-05T08:43:31.234Z,95.18
2023-01-05T08:44:31.242Z,95.22
2023-01-05T08:45:31.313Z,95.22
2023-01-05T08:46:31.308Z,95.12
2023-01-05T08:47:31.171Z,95.12
2023-01-05T08:48:31.175Z,95.02
2023-01-05T08:49:31.146Z,94.81
2023-01-05T08:50:31.189Z,94.81
2023-01-05T08:51:31.119Z,94.71
2023-01-05T08:52:31.122Z,94.60
2023-01-05T08:53:31.078Z,94.51
2023-01-05T08:54:31.094Z,94.60
2023-01-05T08:55:31.135Z,94.40
2023-01-05T08:56:38.078Z,94.20
2023-01-05T08:57:31.036Z,94.26
2023-01-05T08:58:31.054Z,93.85
2023-01-05T08:59:31.004Z,93.54
2023-01-05T09:00:31.015Z,93.24
2023-01-05T09:01:31.104Z,92.93
2023-01-05T09:02:31.146Z,92.93
2023-01-05T09:03:31.027Z,92.62
2023-01-05T09:04:30.963Z,92.32
2023-01-05T09:05:30.951Z,92.11
2023-01-05T09:06:30.953Z,92.11
2023-01-05T09:07:30.916Z,92.11
2023-01-05T09:08:30.900Z,92.01
2023-01-05T09:09:30.880Z,92.01
2023-01-05T09:10:30.903Z,91.70
2023-01-05T09:11:30.857Z,91.91
2023-01-05T09:12:33.228Z,92.11
2023-01-05T09:13:30.851Z,92.21
2023-01-05T09:14:30.827Z,91.91
2023-01-05T09:15:30.799Z,91.80
2023-01-05T09:17:30.821Z,91.80
2023-01-05T09:18:30.786Z,92.01
2023-01-05T09:19:30.737Z,91.76
2023-01-05T09:20:34.653Z,91.46
2023-01-05T09:21:30.762Z,91.05
2023-01-05T09:22:30.748Z,90.84
2023-01-05T09:23:30.675Z,90.94
2023-01-05T09:24:30.686Z,90.74
2023-01-05T09:25:30.660Z,90.43
2023-01-05T09:26:30.683Z,90.33
2023-01-05T09:27:30.650Z,90.02
2023-01-05T09:28:30.650Z,89.92
2023-01-05T09:29:30.585Z,89.72
2023-01-05T09:30:36.034Z,89.41
2023-01-05T09:31:30.623Z,89.51
2023-01-05T09:32:30.635Z,89.61
2023-01-05T09:33:30.573Z,89.51
2023-01-05T09:34:30.591Z,89.41
2023-01-05T09:35:30.542Z,89.11
2023-01-05T09:36:30.555Z,89.00
2023-01-05T09:37:30.527Z,89.20
2023-01-05T09:38:30.543Z,89.11
2023-01-05T09:39:30.519Z,88.90
2023-01-05T09:40:30.498Z,88.70
2023-01-05T09:41:30.453Z,88.70
2023-01-05T09:42:30.470Z,88.59
2023-01-05T09:43:30.456Z,88.79
2023-01-05T09:44:30.450Z,88.59
2023-01-05T09:45:30.386Z,88.49
2023-01-05T09:46:30.493Z,88.08
2023-01-05T09:47:30.399Z,87.88
2023-01-05T09:48:30.366Z,88.08
2023-01-05T09:49:30.353Z,87.88
2023-01-05T09:50:30.359Z,88.08
2023-01-05T09:51:30.357Z,88.18
2023-01-05T09:52:36.023Z,87.98
2023-01-05T09:53:30.291Z,87.88
2023-01-05T09:54:30.325Z,87.88
2023-01-05T09:55:30.292Z,87.84
2023-01-05T09:57:07.242Z,87.84
2023-01-05T09:57:30.261Z,88.04
2023-01-05T09:58:30.401Z,87.94
2023-01-05T09:59:30.219Z,88.04
2023-01-05T10:00:30.223Z,87.63
2023-01-05T10:01:30.279Z,87.73
2023-01-05T10:02:30.205Z,87.94
2023-01-05T10:04:02.608Z,87.63
2023-01-05T10:04:31.032Z,87.63
2023-01-05T10:05:30.335Z,87.53
2023-01-05T10:06:30.142Z,87.23
2023-01-05T10:07:30.116Z,87.23
2023-01-05T10:08:30.119Z,87.53
2023-01-05T10:09:30.083Z,87.32
2023-01-05T10:10:31.252Z,87.23
2023-01-05T10:11:30.061Z,87.12
2023-01-05T10:12:30.091Z,87.12
2023-01-05T10:13:30.031Z,87.53
2023-01-05T10:14:30.041Z,87.23
2023-01-05T10:15:30.007Z,86.91
2023-01-05T10:16:30.169Z,86.61
2023-01-05T10:17:41.048Z,86.88
2023-01-05T10:18:30.003Z,86.51
2023-01-05T10:19:29.962Z,86.77
2023-01-05T10:20:29.951Z,86.98
2023-01-05T10:21:29.925Z,87.08
2023-01-05T10:22:35.040Z,86.77
2023-01-05T10:23:29.913Z,86.67
2023-01-05T10:24:29.900Z,86.67
2023-01-05T10:25:29.871Z,86.26
2023-01-05T10:26:39.855Z,86.26
2023-01-05T10:27:29.855Z,86.67
2023-01-05T10:28:29.849Z,86.67
2023-01-05T10:29:29.868Z,86.36
2023-01-05T10:30:29.807Z,85.96
2023-01-05T10:31:29.857Z,86.06
2023-01-05T10:32:29.764Z,85.75
2023-01-05T10:33:39.712Z,85.75
2023-01-05T10:34:29.769Z,85.96
2023-01-05T10:36:58.042Z,85.96
2023-01-05T10:37:29.729Z,85.75
2023-01-05T10:38:29.705Z,85.55
2023-01-05T10:39:29.718Z,85.55
2023-01-05T10:40:29.699Z,85.45
2023-01-05T10:41:29.693Z,85.10
2023-01-05T10:42:29.632Z,85.10
2023-01-05T10:43:29.638Z,85.30
2023-01-05T10:44:29.661Z,84.90
2023-01-05T10:45:29.607Z,85.21
2023-01-05T10:46:36.545Z,85.10
2023-01-05T10:47:29.674Z,85.30
2023-01-05T10:48:29.559Z,84.90
2023-01-05T10:49:29.591Z,84.69
2023-01-05T10:50:29.555Z,85.21
2023-01-05T10:51:29.548Z,84.90
2023-01-05T10:52:29.491Z,84.80
2023-01-05T10:53:29.548Z,84.49
2023-01-05T10:54:29.485Z,84.39
2023-01-05T10:55:29.500Z,84.49
2023-01-05T10:56:29.501Z,84.90
2023-01-05T10:57:34.833Z,84.69
2023-01-05T10:58:29.450Z,84.69
2023-01-05T10:59:29.467Z,84.80
2023-01-05T11:00:29.421Z,84.28
2023-01-05T11:01:29.554Z,84.59
2023-01-05T11:02:29.455Z,84.80
2023-01-05T11:03:57.246Z,85.10
2023-01-05T11:04:34.923Z,85.41
2023-01-05T11:05:29.409Z,85.51
2023-01-05T11:06:29.342Z,85.41
2023-01-05T11:07:29.329Z,85.41
2023-01-05T11:08:29.297Z,85.10
2023-01-05T11:09:29.323Z,85.41
2023-01-05T11:10:29.268Z,85.71
2023-01-05T11:11:29.303Z,85.21
2023-01-05T11:12:29.234Z,85.30
2023-01-05T11:13:29.272Z,85.41
2023-01-05T11:14:29.222Z,85.71
2023-01-05T11:15:29.295Z,85.71
2023-01-05T11:16:29.202Z,85.92
2023-01-05T11:17:29.227Z,85.71
2023-01-05T11:18:29.175Z,85.61
2023-01-05T11:19:29.205Z,85.41
2023-01-05T11:20:29.130Z,85.92
2023-01-05T11:21:29.145Z,85.82
2023-01-05T11:22:29.098Z,85.92
2023-01-05T11:23:29.162Z,85.82
2023-01-05T11:24:29.116Z,85.92
2023-01-05T11:25:29.083Z,85.82
2023-01-05T11:26:29.074Z,85.82
2023-01-05T11:27:29.054Z,86.12
2023-01-05T11:28:29.024Z,86.33
2023-01-05T11:29:29.053Z,86.22
2023-01-05T11:30:29.011Z,86.53
2023-01-05T11:31:29.132Z,86.63
2023-01-05T11:32:28.977Z,86.53
2023-01-05T11:33:28.987Z,85.61
2023-01-05T11:34:28.960Z,85.92
2023-01-05T11:35:28.962Z,85.71
2023-01-05T11:36:28.918Z,85.71
2023-01-05T11:37:28.938Z,85.71
2023-01-05T11:38:28.906Z,86.22
2023-01-05T11:39:28.932Z,86.12
2023-01-05T11:40:28.867Z,86.22
2023-01-05T11:41:28.891Z,86.12
2023-01-05T11:42:28.862Z,85.71
2023-01-05T11:43:28.840Z,85.61
2023-01-05T11:44:28.844Z,85.61
2023-01-05T11:45:28.813Z,85.51
2023-01-05T11:46:28.833Z,85.71
2023-01-05T11:47:28.788Z,85.82
2023-01-05T11:48:28.785Z,86.12
2023-01-05T11:49:28.736Z,86.02
2023-01-05T11:50:28.786Z,86.02
2023-01-05T11:51:28.706Z,85.71
2023-01-05T11:52:28.728Z,85.61
2023-01-05T11:53:28.704Z,85.51
2023-01-05T11:54:28.706Z,85.41
2023-01-05T11:55:28.678Z,85.51
2023-01-05T11:56:28.684Z,85.37
2023-01-05T11:57:28.669Z,85.47
2023-01-05T11:58:28.680Z,85.77
2023-01-05T11:59:28.619Z,85.77
2023-01-05T12:00:28.684Z,85.68
2023-01-05T12:01:28.628Z,85.37
2023-01-05T12:02:28.669Z,85.37
2023-01-05T12:03:28.621Z,85.16
2023-01-05T12:04:28.615Z,85.47
2023-01-05T12:05:28.543Z,85.37
2023-01-05T12:06:28.581Z,85.16
2023-01-05T12:07:28.517Z,85.27
2023-01-05T12:08:28.518Z,85.30
2023-01-05T12:09:32.794Z,85.37
2023-01-05T12:10:28.498Z,85.51
2023-01-05T12:11:28.473Z,85.10
2023-01-05T12:12:28.485Z,84.80
2023-01-05T12:13:28.426Z,84.69
2023-01-05T12:14:28.432Z,84.49
2023-01-05T12:15:28.397Z,84.66
2023-01-05T12:16:28.518Z,85.10
2023-01-05T12:17:28.394Z,85.27
2023-01-05T12:18:28.399Z,85.51
2023-01-05T12:19:28.334Z,85.71
2023-01-05T12:20:28.365Z,85.10
2023-01-05T12:21:28.335Z,85.10
2023-01-05T12:22:28.358Z,85.10
2023-01-05T12:23:28.306Z,85.10
2023-01-05T12:24:28.317Z,85.21
2023-01-05T12:25:28.306Z,84.59
2023-01-05T12:26:28.300Z,84.90
2023-01-05T12:27:28.242Z,84.69
2023-01-05T12:28:41.062Z,84.69
2023-01-05T12:31:02.781Z,84.18
2023-01-05T12:34:14.139Z,84.49
2023-01-05T12:35:14.128Z,84.59
2023-01-05T12:36:14.060Z,84.69
2023-01-05T12:37:14.083Z,84.59
2023-01-05T12:38:14.023Z,84.59
2023-01-05T12:39:14.059Z,83.98
2023-01-05T12:40:13.997Z,83.98
2023-01-05T12:41:14.025Z,84.08
2023-01-05T12:42:13.974Z,83.87
2023-01-05T12:43:13.994Z,83.37
2023-01-05T12:44:13.935Z,83.47
2023-01-05T12:45:13.936Z,83.47
2023-01-05T12:46:14.000Z,83.47
2023-01-05T12:47:13.956Z,83.16
2023-01-05T12:48:13.912Z,82.86
2023-01-05T12:49:13.917Z,82.96
2023-01-05T12:50:13.879Z,83.02
2023-01-05T12:51:13.910Z,82.96
2023-01-05T12:52:13.834Z,83.12
2023-01-05T12:53:13.849Z,82.92
2023-01-05T12:54:13.803Z,82.92
2023-01-05T12:55:13.824Z,82.82
2023-01-05T12:56:13.877Z,82.82
2023-01-05T12:57:13.802Z,82.61
2023-01-05T12:58:13.795Z,82.31